Norwegian Epic — C6XP7 — position and weather

sailwx.info

Track history (hours):
 
Tides and Currents Weather Stations Pressure Air Temp Water Temp Dewpoint Dewpoint Depression Visibility Wind Speed Wind Dir Waves Ship Positions

Norwegian Epic

Last reported at 2018-Aug-14 13:30 UTC. Time now 2018-Aug-14 13:47 UTC.
Position N 40°50' E 014°16'.

Length 329 m; draft 9.2 m.

Type: Passenger vessel. MMSI: 311018500.

Date/timePositionNaut miles runAvg speedWind from/ knotsBaromVisibWave heightAir tempDewpointWater temp
2018-Aug-14 13:30N 40°50' E 014°16'0 0.0
2018-Aug-14 13:00N 40°50' E 014°16'0 0.0
2018-Aug-14 12:28N 40°50' E 014°16'0 0.0
2018-Aug-14 11:58N 40°50' E 014°16'0 0.0
2018-Aug-14 11:28N 40°50' E 014°16'0 0.0
2018-Aug-14 10:59N 40°50' E 014°16'0 0.0
2018-Aug-14 10:29N 40°50' E 014°16'0 0.0
2018-Aug-14 09:59N 40°50' E 014°16'0 0.0
2018-Aug-14 09:30N 40°50' E 014°16'0 0.0
2018-Aug-14 09:00N 40°50' E 014°16'0 0.0
2018-Aug-14 08:30N 40°50' E 014°16'0 0.0
2018-Aug-14 07:58N 40°50' E 014°16'0 0.1
2018-Aug-14 07:30N 40°50' E 014°16'0 0.0
2018-Aug-14 06:58N 40°50' E 014°16'0 0.0
2018-Aug-14 06:29N 40°50' E 014°16'0 0.0
2018-Aug-14 05:59N 40°50' E 014°16'0 0.0
2018-Aug-14 05:29N 40°50' E 014°16'0 0.0
2018-Aug-14 04:57N 40°50' E 014°16'0 0.5
2018-Aug-14 04:30N 40°50' E 014°16'2 4.0
2018-Aug-14 04:00N 40°49' E 014°17'4 8.0
2018-Aug-14 03:30N 40°45' E 014°14'5 9.9
2018-Aug-14 03:00N 40°42' E 014°09'611.1
2018-Aug-14 02:30N 40°39' E 014°03'611.5
2018-Aug-14 02:00N 40°35' E 013°58'612.0
2018-Aug-14 01:30N 40°31' E 013°52'714.1
2018-Aug-14 01:00N 40°29' E 013°43'816.4
2018-Aug-14 00:30N 40°30' E 013°32'916.3
2018-Aug-13 23:57N 40°32' E 013°21'2516.4
2018-Aug-13 22:24N 40°39' E 012°48'716.3
2018-Aug-13 21:59N 40°41' E 012°40'816.2
2018-Aug-13 21:30N 40°43' E 012°30'816.0
2018-Aug-13 21:00N 40°45' E 012°20'816.1
2018-Aug-13 20:30N 40°47' E 012°10'816.3
2018-Aug-13 19:59N 40°50' E 011°59'816.3
2018-Aug-13 19:30N 40°52' E 011°49'816.2
2018-Aug-13 19:00N 40°54' E 011°38'1315.7
2018-Aug-13 18:10N 40°58' E 011°22'16616.4
2018-Aug-13 08:02N 41°17' E 007°43'117.4
2018-Aug-13 07:57N 41°17' E 007°41'1017.3
2018-Aug-13 07:22N 41°17' E 007°28'717.3
2018-Aug-13 06:57N 41°17' E 007°18'21616.8
2018-Aug-12 18:04N 41°14' E 002°30'116.4
2018-Aug-12 18:00N 41°14' E 002°29'816.4
2018-Aug-12 17:29N 41°15' E 002°18'612.4
2018-Aug-12 17:00N 41°17' E 002°11'4 9.0
2018-Aug-12 16:30N 41°21' E 002°11'0 0.5
2018-Aug-12 15:59N 41°22' E 002°11'0 0.0
2018-Aug-12 15:29N 41°22' E 002°11'0 0.0
2018-Aug-12 14:59N 41°22' E 002°11'0 0.0
2018-Aug-12 14:30N 41°22' E 002°11'0 0.0
2018-Aug-12 14:00N 41°22' E 002°11'0 0.0
2018-Aug-12 13:30N 41°22' E 002°11'0 0.0
2018-Aug-12 12:58N 41°22' E 002°11'0 0.0
2018-Aug-12 12:28N 41°22' E 002°11'0 0.0
2018-Aug-12 11:58N 41°22' E 002°11'0 0.0
2018-Aug-12 11:29N 41°22' E 002°11'0 0.0
2018-Aug-12 10:59N 41°22' E 002°11'0 0.0
2018-Aug-12 10:29N 41°22' E 002°11'0 0.0
2018-Aug-12 10:00N 41°22' E 002°11'0 0.0
2018-Aug-12 09:30N 41°22' E 002°11'0 0.0
2018-Aug-12 09:00N 41°22' E 002°11'0 0.0
2018-Aug-12 08:28N 41°22' E 002°11'0 0.0
2018-Aug-12 07:58N 41°22' E 002°11'0 0.0
2018-Aug-12 07:28N 41°22' E 002°11'0 0.0
2018-Aug-12 06:59N 41°22' E 002°11'0 0.0
2018-Aug-12 06:29N 41°22' E 002°11'0 0.0
2018-Aug-12 05:59N 41°22' E 002°11'0 0.0
2018-Aug-12 05:30N 41°22' E 002°11'0 0.0
2018-Aug-12 05:00N 41°22' E 002°11'0 0.0
2018-Aug-12 04:30N 41°22' E 002°11'0 0.0
2018-Aug-12 03:58N 41°22' E 002°11'0 0.0
2018-Aug-12 03:28N 41°22' E 002°11'0 0.0
2018-Aug-12 02:58N 41°22' E 002°11'0 0.9
2018-Aug-12 02:31N 41°21' E 002°10'3 6.3
2018-Aug-12 02:01N 41°18' E 002°11'815.6
2018-Aug-12 01:31N 41°10' E 002°11'916.8
2018-Aug-12 00:58N 41°01' E 002°11'9216.5
2018-Aug-11 19:23N 39°30' E 002°21'616.3
2018-Aug-11 19:00N 39°26' E 002°28'714.2
2018-Aug-11 18:30N 39°29' E 002°36'4 8.1
2018-Aug-11 18:00N 39°33' E 002°38'0 0.1
2018-Aug-11 17:30N 39°33' E 002°38'0 0.0
2018-Aug-11 16:58N 39°33' E 002°38'0 0.0
2018-Aug-11 16:28N 39°33' E 002°38'0 0.0
2018-Aug-11 15:58N 39°33' E 002°38'0 0.0
2018-Aug-11 15:29N 39°33' E 002°38'0 0.0
2018-Aug-11 14:59N 39°33' E 002°38'0 0.0
2018-Aug-11 14:29N 39°33' E 002°38'0 0.0
2018-Aug-11 14:00N 39°33' E 002°38'0 0.0
2018-Aug-11 13:30N 39°33' E 002°38'0 0.0
2018-Aug-11 13:00N 39°33' E 002°38'0 0.0
2018-Aug-11 12:28N 39°33' E 002°38'0 0.0
2018-Aug-11 11:58N 39°33' E 002°38'0 0.0
2018-Aug-11 11:28N 39°33' E 002°38'0 0.0
2018-Aug-11 10:59N 39°33' E 002°38'0 0.0
2018-Aug-11 10:29N 39°33' E 002°38'2 3.1
2018-Aug-11 10:00N 39°32' E 002°38'713.4
2018-Aug-11 09:30N 39°26' E 002°34'714.0
2018-Aug-11 09:00N 39°27' E 002°25'2815.4
2018-Aug-11 07:10N 39°54' E 002°36'421.8
2018-Aug-11 06:59N 39°57' E 002°40'1221.6
2018-Aug-11 06:26N 40°05' E 002°50'1021.4
2018-Aug-11 05:59N 40°12' E 002°59'24921.0
2018-Aug-10 18:09N 43°12' E 006°51'620.8
2018-Aug-10 17:53N 43°17' E 006°54'818.7
2018-Aug-10 17:27N 43°25' E 006°57'716.2
2018-Aug-10 17:00N 43°31' E 007°00'1 1.6
2018-Aug-10 16:30N 43°32' E 007°00'0 0.4
2018-Aug-10 15:59N 43°32' E 007°01'0 0.3
2018-Aug-10 15:30N 43°32' E 007°00'0 0.1
2018-Aug-10 15:00N 43°32' E 007°01'0 0.0
2018-Aug-10 14:30N 43°32' E 007°01'0 0.0
2018-Aug-10 14:00N 43°32' E 007°01'0 0.1
2018-Aug-10 13:28N 43°32' E 007°01'0 0.2
2018-Aug-10 12:58N 43°32' E 007°01'0 0.2
2018-Aug-10 12:31N 43°32' E 007°01'0 0.3
2018-Aug-10 11:59N 43°32' E 007°01'0 0.1
2018-Aug-10 11:29N 43°32' E 007°01'0 0.0
2018-Aug-10 11:00N 43°32' E 007°01'0 0.1
2018-Aug-10 10:27N 43°32' E 007°01'0 0.0
2018-Aug-10 09:57N 43°32' E 007°01'0 0.1
2018-Aug-10 09:29N 43°32' E 007°01'0 0.0
2018-Aug-10 08:57N 43°32' E 007°01'0 0.2
2018-Aug-10 08:28N 43°32' E 007°01'0 0.0
2018-Aug-10 07:59N 43°32' E 007°01'0 0.0
2018-Aug-10 07:29N 43°32' E 007°01'0 0.0
2018-Aug-10 06:59N 43°32' E 007°01'0 0.0
2018-Aug-10 06:27N 43°32' E 007°01'0 0.0
2018-Aug-10 06:00N 43°32' E 007°01'0 0.4
2018-Aug-10 05:29N 43°32' E 007°01'0 0.6
2018-Aug-10 05:00N 43°32' E 007°01'1 3.0
2018-Aug-10 04:31N 43°30' E 007°01'4 8.3
2018-Aug-10 04:00N 43°28' E 007°06'510.9
2018-Aug-10 03:30N 43°28' E 007°13'611.0
2018-Aug-10 03:00N 43°28' E 007°21'510.8
2018-Aug-10 02:30N 43°29' E 007°28'611.3
2018-Aug-10 02:00N 43°29' E 007°36'611.4
2018-Aug-10 01:28N 43°29' E 007°44'511.5
2018-Aug-10 01:00N 43°29' E 007°51'611.4
2018-Aug-10 00:30N 43°29' E 007°59'611.4
2018-Aug-09 23:59N 43°29' E 008°07'511.3
2018-Aug-09 23:30N 43°29' E 008°15'613.0
2018-Aug-09 23:01N 43°30' E 008°24'714.5
2018-Aug-09 22:31N 43°31' E 008°34'714.0
2018-Aug-09 22:00N 43°32' E 008°43'713.3
2018-Aug-09 21:30N 43°31' E 008°52'714.1
2018-Aug-09 21:00N 43°31' E 009°02'714.7
2018-Aug-09 20:30N 43°31' E 009°12'815.1
2018-Aug-09 20:00N 43°31' E 009°23'714.8
2018-Aug-09 19:30N 43°31' E 009°33'714.8
2018-Aug-09 19:00N 43°31' E 009°43'714.9
2018-Aug-09 18:30N 43°32' E 009°53'714.7
2018-Aug-09 18:00N 43°31' E 010°03'713.7
2018-Aug-09 17:30N 43°31' E 010°13'4 7.9
2018-Aug-09 17:00N 43°33' E 010°18'0 0.0
2018-Aug-09 16:28N 43°33' E 010°18'0 0.0
2018-Aug-09 15:58N 43°33' E 010°18'0 0.0
2018-Aug-09 15:29N 43°33' E 010°18'0 0.0
2018-Aug-09 14:56N 43°33' E 010°18'0 0.0
2018-Aug-09 14:29N 43°33' E 010°18'0 0.0
2018-Aug-09 14:00N 43°33' E 010°18'0 0.0
2018-Aug-09 13:30N 43°33' E 010°18'0 0.0
2018-Aug-09 13:00N 43°33' E 010°18'0 0.0
2018-Aug-09 12:28N 43°33' E 010°18'0 0.0
2018-Aug-09 11:55N 43°33' E 010°18'0 0.0
2018-Aug-09 11:28N 43°33' E 010°18'0 0.0
2018-Aug-09 10:59N 43°33' E 010°18'0 0.0
2018-Aug-09 10:29N 43°33' E 010°18'0 0.0
2018-Aug-09 09:59N 43°33' E 010°18'0 0.0
2018-Aug-09 09:27N 43°33' E 010°18'0 0.0
2018-Aug-09 09:00N 43°33' E 010°18'0 0.0
2018-Aug-09 08:30N 43°33' E 010°18'0 0.0
2018-Aug-09 07:58N 43°33' E 010°18'0 0.0
2018-Aug-09 07:28N 43°33' E 010°18'0 0.0
2018-Aug-09 06:58N 43°33' E 010°18'0 0.0
2018-Aug-09 06:29N 43°33' E 010°18'0 0.0
2018-Aug-09 05:59N 43°33' E 010°18'0 0.0
2018-Aug-09 05:29N 43°33' E 010°18'0 0.0
2018-Aug-09 05:00N 43°33' E 010°18'0 0.2
2018-Aug-09 04:31N 43°33' E 010°18'2 3.4
2018-Aug-09 04:01N 43°32' E 010°16'611.9
2018-Aug-09 03:31N 43°27' E 010°12'714.7
2018-Aug-09 03:00N 43°20' E 010°09'714.6
2018-Aug-09 02:31N 43°13' E 010°07'815.5
2018-Aug-09 02:01N 43°05' E 010°05'815.5
2018-Aug-09 01:31N 42°57' E 010°02'2515.4
2018-Aug-08 23:51N 42°33' E 009°54'616.1
2018-Aug-08 23:30N 42°27' E 009°55'816.1
2018-Aug-08 23:01N 42°19' E 009°56'815.0
2018-Aug-08 22:30N 42°15' E 010°04'816.6
2018-Aug-08 22:00N 42°12' E 010°15'816.7
2018-Aug-08 21:30N 42°08' E 010°25'817.0
2018-Aug-08 21:01N 42°06' E 010°36'816.7
2018-Aug-08 20:30N 42°03' E 010°46'816.7
2018-Aug-08 20:00N 41°60' E 010°57'816.4
2018-Aug-08 19:30N 41°58' E 011°08'816.6
2018-Aug-08 19:00N 42°00' E 011°18'22 1.8
2018-Aug-08 06:39N 42°06' E 011°47'0 0.0
2018-Aug-08 06:27N 42°06' E 011°47'0 0.0
2018-Aug-08 05:51N 42°06' E 011°47'0 0.0
2018-Aug-08 05:25N 42°06' E 011°47'0 0.0
2018-Aug-08 04:58N 42°06' E 011°47'0 0.0
2018-Aug-08 04:25N 42°06' E 011°47'0 0.0
2018-Aug-08 03:39N 42°06' E 011°47'0 1.1
2018-Aug-08 03:30N 42°06' E 011°47'2 4.0
2018-Aug-08 02:54N 42°05' E 011°43'1014.0
2018-Aug-08 02:12N 41°56' E 011°46'316.6
2018-Aug-08 02:00N 41°53' E 011°48'816.6
2018-Aug-08 01:30N 41°45' E 011°52'816.7
2018-Aug-08 01:01N 41°38' E 011°57'1016.6
2018-Aug-08 00:25N 41°29' E 012°02'2316.5
2018-Aug-07 23:03N 41°11' E 012°20'116.7
2018-Aug-07 23:00N 41°10' E 012°21'1218.7
2018-Aug-07 22:20N 41°01' E 012°32'1418.7
2018-Aug-07 21:35N 40°51' E 012°45'218.4
2018-Aug-07 21:30N 40°50' E 012°47'918.7
2018-Aug-07 21:00N 40°46' E 012°58'1018.6
2018-Aug-07 20:29N 40°43' E 013°10'918.6
2018-Aug-07 20:00N 40°41' E 013°22'918.4
2018-Aug-07 19:30N 40°40' E 013°34'918.3
2018-Aug-07 19:01N 40°39' E 013°45'918.4
2018-Aug-07 18:30N 40°38' E 013°58'816.8
2018-Aug-07 18:01N 40°42' E 014°08'816.3
2018-Aug-07 17:31N 40°47' E 014°16'3 5.7
2018-Aug-07 17:00N 40°50' E 014°16'0 0.0
2018-Aug-07 16:29N 40°50' E 014°16'0 0.0
2018-Aug-07 15:59N 40°50' E 014°16'0 0.0
2018-Aug-07 15:29N 40°50' E 014°16'0 0.0
2018-Aug-07 15:00N 40°50' E 014°16'0 0.0
2018-Aug-07 14:27N 40°50' E 014°16'0 0.0
2018-Aug-07 14:00N 40°50' E 014°16'0 0.1
2018-Aug-07 13:29N 40°50' E 014°16'0 0.1
2018-Aug-07 12:58N 40°50' E 014°16'0 0.0
2018-Aug-07 12:28N 40°50' E 014°16'0 0.0
2018-Aug-07 11:59N 40°50' E 014°16'0 0.0
2018-Aug-07 11:29N 40°50' E 014°16'0 0.0
2018-Aug-07 10:59N 40°50' E 014°16'0 0.0
2018-Aug-07 10:30N 40°50' E 014°16'0 0.0
2018-Aug-07 10:00N 40°50' E 014°16'0 0.0
2018-Aug-07 09:30N 40°50' E 014°16'0 0.0
2018-Aug-07 08:58N 40°50' E 014°16'0 0.0
2018-Aug-07 08:28N 40°50' E 014°16'0 0.0
2018-Aug-07 08:00N 40°50' E 014°16'0 0.0
2018-Aug-07 07:30N 40°50' E 014°16'0 0.0
2018-Aug-07 07:00N 40°50' E 014°16'0 0.0
2018-Aug-07 06:30N 40°50' E 014°16'0 0.0
2018-Aug-07 06:00N 40°50' E 014°16'0 0.0
2018-Aug-07 05:30N 40°50' E 014°16'0 0.0
2018-Aug-07 05:00N 40°50' E 014°16'0 0.1
2018-Aug-07 04:30N 40°50' E 014°16'1 2.6
2018-Aug-07 04:00N 40°49' E 014°17'5 9.7
2018-Aug-07 03:30N 40°45' E 014°14'612.4
2018-Aug-07 03:00N 40°41' E 014°08'713.5
2018-Aug-07 02:30N 40°37' E 014°01'815.6
2018-Aug-07 02:00N 40°32' E 013°53'815.3
2018-Aug-07 01:30N 40°29' E 013°44'815.9
2018-Aug-07 01:00N 40°29' E 013°33'815.9
2018-Aug-07 00:30N 40°31' E 013°23'815.8
2018-Aug-07 00:01N 40°33' E 013°14'915.7
2018-Aug-06 23:27N 40°36' E 013°03'715.9
2018-Aug-06 23:00N 40°38' E 012°53'815.9
2018-Aug-06 22:30N 40°40' E 012°43'815.8
2018-Aug-06 22:00N 40°42' E 012°33'815.7
2018-Aug-06 21:30N 40°44' E 012°23'815.9
2018-Aug-06 21:01N 40°46' E 012°13'815.9
2018-Aug-06 20:30N 40°49' E 012°03'816.0
2018-Aug-06 20:01N 40°51' E 011°53'815.9
2018-Aug-06 19:31N 40°53' E 011°43'815.7
2018-Aug-06 18:58N 40°55' E 011°32'715.5
2018-Aug-06 18:30N 40°57' E 011°23'815.4
2018-Aug-06 18:00N 40°59' E 011°13'3915.9
2018-Aug-06 15:33N 41°10' E 010°23'1716.9
2018-Aug-06 14:32N 41°13' E 010°01'216.5
2018-Aug-06 14:23N 41°14' E 009°58'916.3
2018-Aug-06 13:50N 41°18' E 009°47'716.4
2018-Aug-06 13:26N 41°20' E 009°39'716.2
2018-Aug-06 13:00N 41°21' E 009°30'6815.7
2018-Aug-06 08:42N 41°17' E 007°60'816.7
2018-Aug-06 08:15N 41°17' E 007°50'2816.7
2018-Aug-06 06:34N 41°17' E 007°13'116.7
2018-Aug-06 06:30N 41°17' E 007°11'10316.9
2018-Aug-06 00:24N 41°15' E 004°54'2617.3
2018-Aug-05 22:54N 41°16' E 004°19'717.3
2018-Aug-05 22:30N 41°16' E 004°10'917.1
2018-Aug-05 22:00N 41°16' E 003°59'816.9
2018-Aug-05 21:30N 41°16' E 003°48'816.9
2018-Aug-05 21:00N 41°16' E 003°36'816.7
2018-Aug-05 20:30N 41°16' E 003°25'816.6
2018-Aug-05 20:00N 41°16' E 003°14'816.4
2018-Aug-05 19:30N 41°16' E 003°03'2716.1
2018-Aug-05 17:51N 41°15' E 002°28'616.3
2018-Aug-05 17:30N 41°15' E 002°20'714.6
2018-Aug-05 17:00N 41°17' E 002°11'5 9.5
2018-Aug-05 16:30N 41°21' E 002°10'1 1.2
2018-Aug-05 16:00N 41°22' E 002°11'0 0.0
2018-Aug-05 15:30N 41°22' E 002°11'0 0.0
2018-Aug-05 14:58N 41°22' E 002°11'0 0.0
2018-Aug-05 13:58N 41°22' E 002°11'0 0.0
2018-Aug-05 13:29N 41°22' E 002°11'0 0.0
2018-Aug-05 12:59N 41°22' E 002°11'0 0.0
2018-Aug-05 12:29N 41°22' E 002°11'0 0.0
2018-Aug-05 12:00N 41°22' E 002°11'0 0.0
2018-Aug-05 11:30N 41°22' E 002°11'0 0.0
2018-Aug-05 11:00N 41°22' E 002°11'0 0.0
2018-Aug-05 10:28N 41°22' E 002°11'0 0.0
2018-Aug-05 09:58N 41°22' E 002°11'0 0.0
2018-Aug-05 09:28N 41°22' E 002°11'0 0.0
2018-Aug-05 09:00N 41°22' E 002°11'0 0.0
2018-Aug-05 08:30N 41°22' E 002°11'0 0.0
2018-Aug-05 08:00N 41°22' E 002°11'0 0.0
2018-Aug-05 07:30N 41°22' E 002°11'0 0.0
2018-Aug-05 06:59N 41°22' E 002°11'0 0.0
2018-Aug-05 06:30N 41°22' E 002°11'0 0.0
2018-Aug-05 06:00N 41°22' E 002°11'0 0.0
2018-Aug-05 05:30N 41°22' E 002°11'0 0.0
2018-Aug-05 05:00N 41°22' E 002°11'0 0.0
2018-Aug-05 04:30N 41°22' E 002°11'0 0.0
2018-Aug-05 04:00N 41°22' E 002°11'0 0.0
2018-Aug-05 03:30N 41°22' E 002°11'0 0.0
2018-Aug-05 03:00N 41°22' E 002°11'1 1.3
2018-Aug-05 02:30N 41°21' E 002°10'4 7.1
2018-Aug-05 02:00N 41°18' E 002°11'815.1
2018-Aug-05 01:30N 41°10' E 002°11'816.7
2018-Aug-05 01:00N 41°02' E 002°12'816.5
2018-Aug-05 00:30N 40°54' E 002°13'816.9
2018-Aug-05 00:00N 40°45' E 002°13'816.9
2018-Aug-04 23:30N 40°37' E 002°13'917.1
2018-Aug-04 23:00N 40°28' E 002°12'817.2
2018-Aug-04 22:30N 40°20' E 002°12'917.1
2018-Aug-04 22:00N 40°11' E 002°12'816.4
2018-Aug-04 21:30N 40°03' E 002°12'816.1
2018-Aug-04 21:00N 39°55' E 002°13'816.3
2018-Aug-04 20:30N 39°47' E 002°13'1915.6
2018-Aug-04 19:17N 39°29' E 002°22'415.9
2018-Aug-04 19:00N 39°26' E 002°27'714.5
2018-Aug-04 18:30N 39°29' E 002°36'5 9.8
2018-Aug-04 18:00N 39°33' E 002°38'0 0.2
2018-Aug-04 17:19N 39°33' E 002°38'0 0.0
2018-Aug-04 16:58N 39°33' E 002°38'0 0.0
2018-Aug-04 16:28N 39°33' E 002°38'0 0.0
2018-Aug-04 15:59N 39°33' E 002°38'0 0.0
2018-Aug-04 15:29N 39°33' E 002°38'0 0.0
2018-Aug-04 14:59N 39°33' E 002°38'0 0.0
2018-Aug-04 14:30N 39°33' E 002°38'0 0.1
2018-Aug-04 14:00N 39°33' E 002°38'0 0.1
2018-Aug-04 13:30N 39°33' E 002°38'  
Track history (hours):
 
Tides and Currents Weather Stations Pressure Air Temp Water Temp Dewpoint Dewpoint Depression Visibility Wind Speed Wind Dir Waves Ship Positions

Norwegian Epic

Last reported at 2018-Aug-14 13:30 UTC. Time now 2018-Aug-14 13:47 UTC.
Position N 40°50' E 014°16'.

Length 329 m; draft 9.2 m.

Type: Passenger vessel. MMSI: 311018500.

Date/timePositionNaut miles runAvg speedWind from/ knotsBaromVisibWave heightAir tempDewpointWater temp
2018-Aug-14 13:30N 40°50' E 014°16'0 0.0
2018-Aug-14 13:00N 40°50' E 014°16'0 0.0
2018-Aug-14 12:28N 40°50' E 014°16'0 0.0
2018-Aug-14 11:58N 40°50' E 014°16'0 0.0
2018-Aug-14 11:28N 40°50' E 014°16'0 0.0
2018-Aug-14 10:59N 40°50' E 014°16'0 0.0
2018-Aug-14 10:29N 40°50' E 014°16'0 0.0
2018-Aug-14 09:59N 40°50' E 014°16'0 0.0
2018-Aug-14 09:30N 40°50' E 014°16'0 0.0
2018-Aug-14 09:00N 40°50' E 014°16'0 0.0
2018-Aug-14 08:30N 40°50' E 014°16'0 0.0
2018-Aug-14 07:58N 40°50' E 014°16'0 0.1
2018-Aug-14 07:30N 40°50' E 014°16'0 0.0
2018-Aug-14 06:58N 40°50' E 014°16'0 0.0
2018-Aug-14 06:29N 40°50' E 014°16'0 0.0
2018-Aug-14 05:59N 40°50' E 014°16'0 0.0
2018-Aug-14 05:29N 40°50' E 014°16'0 0.0
2018-Aug-14 04:57N 40°50' E 014°16'0 0.5
2018-Aug-14 04:30N 40°50' E 014°16'2 4.0
2018-Aug-14 04:00N 40°49' E 014°17'4 8.0
2018-Aug-14 03:30N 40°45' E 014°14'5 9.9
2018-Aug-14 03:00N 40°42' E 014°09'611.1
2018-Aug-14 02:30N 40°39' E 014°03'611.5
2018-Aug-14 02:00N 40°35' E 013°58'612.0
2018-Aug-14 01:30N 40°31' E 013°52'714.1
2018-Aug-14 01:00N 40°29' E 013°43'816.4
2018-Aug-14 00:30N 40°30' E 013°32'916.3
2018-Aug-13 23:57N 40°32' E 013°21'2516.4
2018-Aug-13 22:24N 40°39' E 012°48'716.3
2018-Aug-13 21:59N 40°41' E 012°40'816.2
2018-Aug-13 21:30N 40°43' E 012°30'816.0
2018-Aug-13 21:00N 40°45' E 012°20'816.1
2018-Aug-13 20:30N 40°47' E 012°10'816.3
2018-Aug-13 19:59N 40°50' E 011°59'816.3
2018-Aug-13 19:30N 40°52' E 011°49'816.2
2018-Aug-13 19:00N 40°54' E 011°38'1315.7
2018-Aug-13 18:10N 40°58' E 011°22'16616.4
2018-Aug-13 08:02N 41°17' E 007°43'117.4
2018-Aug-13 07:57N 41°17' E 007°41'1017.3
2018-Aug-13 07:22N 41°17' E 007°28'717.3
2018-Aug-13 06:57N 41°17' E 007°18'21616.8
2018-Aug-12 18:04N 41°14' E 002°30'116.4
2018-Aug-12 18:00N 41°14' E 002°29'816.4
2018-Aug-12 17:29N 41°15' E 002°18'612.4
2018-Aug-12 17:00N 41°17' E 002°11'4 9.0
2018-Aug-12 16:30N 41°21' E 002°11'0 0.5
2018-Aug-12 15:59N 41°22' E 002°11'0 0.0
2018-Aug-12 15:29N 41°22' E 002°11'0 0.0
2018-Aug-12 14:59N 41°22' E 002°11'0 0.0
2018-Aug-12 14:30N 41°22' E 002°11'0 0.0
2018-Aug-12 14:00N 41°22' E 002°11'0 0.0
2018-Aug-12 13:30N 41°22' E 002°11'0 0.0
2018-Aug-12 12:58N 41°22' E 002°11'0 0.0
2018-Aug-12 12:28N 41°22' E 002°11'0 0.0
2018-Aug-12 11:58N 41°22' E 002°11'0 0.0
2018-Aug-12 11:29N 41°22' E 002°11'0 0.0
2018-Aug-12 10:59N 41°22' E 002°11'0 0.0
2018-Aug-12 10:29N 41°22' E 002°11'0 0.0
2018-Aug-12 10:00N 41°22' E 002°11'0 0.0
2018-Aug-12 09:30N 41°22' E 002°11'0 0.0
2018-Aug-12 09:00N 41°22' E 002°11'0 0.0
2018-Aug-12 08:28N 41°22' E 002°11'0 0.0
2018-Aug-12 07:58N 41°22' E 002°11'0 0.0
2018-Aug-12 07:28N 41°22' E 002°11'0 0.0
2018-Aug-12 06:59N 41°22' E 002°11'0 0.0
2018-Aug-12 06:29N 41°22' E 002°11'0 0.0
2018-Aug-12 05:59N 41°22' E 002°11'0 0.0
2018-Aug-12 05:30N 41°22' E 002°11'0 0.0
2018-Aug-12 05:00N 41°22' E 002°11'0 0.0
2018-Aug-12 04:30N 41°22' E 002°11'0 0.0
2018-Aug-12 03:58N 41°22' E 002°11'0 0.0
2018-Aug-12 03:28N 41°22' E 002°11'0 0.0
2018-Aug-12 02:58N 41°22' E 002°11'0 0.9
2018-Aug-12 02:31N 41°21' E 002°10'3 6.3
2018-Aug-12 02:01N 41°18' E 002°11'815.6
2018-Aug-12 01:31N 41°10' E 002°11'916.8
2018-Aug-12 00:58N 41°01' E 002°11'9216.5
2018-Aug-11 19:23N 39°30' E 002°21'616.3
2018-Aug-11 19:00N 39°26' E 002°28'714.2
2018-Aug-11 18:30N 39°29' E 002°36'4 8.1
2018-Aug-11 18:00N 39°33' E 002°38'0 0.1
2018-Aug-11 17:30N 39°33' E 002°38'0 0.0
2018-Aug-11 16:58N 39°33' E 002°38'0 0.0
2018-Aug-11 16:28N 39°33' E 002°38'0 0.0
2018-Aug-11 15:58N 39°33' E 002°38'0 0.0
2018-Aug-11 15:29N 39°33' E 002°38'0 0.0
2018-Aug-11 14:59N 39°33' E 002°38'0 0.0
2018-Aug-11 14:29N 39°33' E 002°38'0 0.0
2018-Aug-11 14:00N 39°33' E 002°38'0 0.0
2018-Aug-11 13:30N 39°33' E 002°38'0 0.0
2018-Aug-11 13:00N 39°33' E 002°38'0 0.0
2018-Aug-11 12:28N 39°33' E 002°38'0 0.0
2018-Aug-11 11:58N 39°33' E 002°38'0 0.0
2018-Aug-11 11:28N 39°33' E 002°38'0 0.0
2018-Aug-11 10:59N 39°33' E 002°38'0 0.0
2018-Aug-11 10:29N 39°33' E 002°38'2 3.1
2018-Aug-11 10:00N 39°32' E 002°38'713.4
2018-Aug-11 09:30N 39°26' E 002°34'714.0
2018-Aug-11 09:00N 39°27' E 002°25'2815.4
2018-Aug-11 07:10N 39°54' E 002°36'421.8
2018-Aug-11 06:59N 39°57' E 002°40'1221.6
2018-Aug-11 06:26N 40°05' E 002°50'1021.4
2018-Aug-11 05:59N 40°12' E 002°59'24921.0
2018-Aug-10 18:09N 43°12' E 006°51'620.8
2018-Aug-10 17:53N 43°17' E 006°54'818.7
2018-Aug-10 17:27N 43°25' E 006°57'716.2
2018-Aug-10 17:00N 43°31' E 007°00'1 1.6
2018-Aug-10 16:30N 43°32' E 007°00'0 0.4
2018-Aug-10 15:59N 43°32' E 007°01'0 0.3
2018-Aug-10 15:30N 43°32' E 007°00'0 0.1
2018-Aug-10 15:00N 43°32' E 007°01'0 0.0
2018-Aug-10 14:30N 43°32' E 007°01'0 0.0
2018-Aug-10 14:00N 43°32' E 007°01'0 0.1
2018-Aug-10 13:28N 43°32' E 007°01'0 0.2
2018-Aug-10 12:58N 43°32' E 007°01'0 0.2
2018-Aug-10 12:31N 43°32' E 007°01'0 0.3
2018-Aug-10 11:59N 43°32' E 007°01'0 0.1
2018-Aug-10 11:29N 43°32' E 007°01'0 0.0
2018-Aug-10 11:00N 43°32' E 007°01'0 0.1
2018-Aug-10 10:27N 43°32' E 007°01'0 0.0
2018-Aug-10 09:57N 43°32' E 007°01'0 0.1
2018-Aug-10 09:29N 43°32' E 007°01'0 0.0
2018-Aug-10 08:57N 43°32' E 007°01'0 0.2
2018-Aug-10 08:28N 43°32' E 007°01'0 0.0
2018-Aug-10 07:59N 43°32' E 007°01'0 0.0
2018-Aug-10 07:29N 43°32' E 007°01'0 0.0
2018-Aug-10 06:59N 43°32' E 007°01'0 0.0
2018-Aug-10 06:27N 43°32' E 007°01'0 0.0
2018-Aug-10 06:00N 43°32' E 007°01'0 0.4
2018-Aug-10 05:29N 43°32' E 007°01'0 0.6
2018-Aug-10 05:00N 43°32' E 007°01'1 3.0
2018-Aug-10 04:31N 43°30' E 007°01'4 8.3
2018-Aug-10 04:00N 43°28' E 007°06'510.9
2018-Aug-10 03:30N 43°28' E 007°13'611.0
2018-Aug-10 03:00N 43°28' E 007°21'510.8
2018-Aug-10 02:30N 43°29' E 007°28'611.3
2018-Aug-10 02:00N 43°29' E 007°36'611.4
2018-Aug-10 01:28N 43°29' E 007°44'511.5
2018-Aug-10 01:00N 43°29' E 007°51'611.4
2018-Aug-10 00:30N 43°29' E 007°59'611.4
2018-Aug-09 23:59N 43°29' E 008°07'511.3
2018-Aug-09 23:30N 43°29' E 008°15'613.0
2018-Aug-09 23:01N 43°30' E 008°24'714.5
2018-Aug-09 22:31N 43°31' E 008°34'714.0
2018-Aug-09 22:00N 43°32' E 008°43'713.3
2018-Aug-09 21:30N 43°31' E 008°52'714.1
2018-Aug-09 21:00N 43°31' E 009°02'714.7
2018-Aug-09 20:30N 43°31' E 009°12'815.1
2018-Aug-09 20:00N 43°31' E 009°23'714.8
2018-Aug-09 19:30N 43°31' E 009°33'714.8
2018-Aug-09 19:00N 43°31' E 009°43'714.9
2018-Aug-09 18:30N 43°32' E 009°53'714.7
2018-Aug-09 18:00N 43°31' E 010°03'713.7
2018-Aug-09 17:30N 43°31' E 010°13'4 7.9
2018-Aug-09 17:00N 43°33' E 010°18'0 0.0
2018-Aug-09 16:28N 43°33' E 010°18'0 0.0
2018-Aug-09 15:58N 43°33' E 010°18'0 0.0
2018-Aug-09 15:29N 43°33' E 010°18'0 0.0
2018-Aug-09 14:56N 43°33' E 010°18'0 0.0
2018-Aug-09 14:29N 43°33' E 010°18'0 0.0
2018-Aug-09 14:00N 43°33' E 010°18'0 0.0
2018-Aug-09 13:30N 43°33' E 010°18'0 0.0
2018-Aug-09 13:00N 43°33' E 010°18'0 0.0
2018-Aug-09 12:28N 43°33' E 010°18'0 0.0
2018-Aug-09 11:55N 43°33' E 010°18'0 0.0
2018-Aug-09 11:28N 43°33' E 010°18'0 0.0
2018-Aug-09 10:59N 43°33' E 010°18'0 0.0
2018-Aug-09 10:29N 43°33' E 010°18'0 0.0
2018-Aug-09 09:59N 43°33' E 010°18'0 0.0
2018-Aug-09 09:27N 43°33' E 010°18'0 0.0
2018-Aug-09 09:00N 43°33' E 010°18'0 0.0
2018-Aug-09 08:30N 43°33' E 010°18'0 0.0
2018-Aug-09 07:58N 43°33' E 010°18'0 0.0
2018-Aug-09 07:28N 43°33' E 010°18'0 0.0
2018-Aug-09 06:58N 43°33' E 010°18'0 0.0
2018-Aug-09 06:29N 43°33' E 010°18'0 0.0
2018-Aug-09 05:59N 43°33' E 010°18'0 0.0
2018-Aug-09 05:29N 43°33' E 010°18'0 0.0
2018-Aug-09 05:00N 43°33' E 010°18'0 0.2
2018-Aug-09 04:31N 43°33' E 010°18'2 3.4
2018-Aug-09 04:01N 43°32' E 010°16'611.9
2018-Aug-09 03:31N 43°27' E 010°12'714.7
2018-Aug-09 03:00N 43°20' E 010°09'714.6
2018-Aug-09 02:31N 43°13' E 010°07'815.5
2018-Aug-09 02:01N 43°05' E 010°05'815.5
2018-Aug-09 01:31N 42°57' E 010°02'2515.4
2018-Aug-08 23:51N 42°33' E 009°54'616.1
2018-Aug-08 23:30N 42°27' E 009°55'816.1
2018-Aug-08 23:01N 42°19' E 009°56'815.0
2018-Aug-08 22:30N 42°15' E 010°04'816.6
2018-Aug-08 22:00N 42°12' E 010°15'816.7
2018-Aug-08 21:30N 42°08' E 010°25'817.0
2018-Aug-08 21:01N 42°06' E 010°36'816.7
2018-Aug-08 20:30N 42°03' E 010°46'816.7
2018-Aug-08 20:00N 41°60' E 010°57'816.4
2018-Aug-08 19:30N 41°58' E 011°08'816.6
2018-Aug-08 19:00N 42°00' E 011°18'22 1.8
2018-Aug-08 06:39N 42°06' E 011°47'0 0.0
2018-Aug-08 06:27N 42°06' E 011°47'0 0.0
2018-Aug-08 05:51N 42°06' E 011°47'0 0.0
2018-Aug-08 05:25N 42°06' E 011°47'0 0.0
2018-Aug-08 04:58N 42°06' E 011°47'0 0.0
2018-Aug-08 04:25N 42°06' E 011°47'0 0.0
2018-Aug-08 03:39N 42°06' E 011°47'0 1.1
2018-Aug-08 03:30N 42°06' E 011°47'2 4.0
2018-Aug-08 02:54N 42°05' E 011°43'1014.0
2018-Aug-08 02:12N 41°56' E 011°46'316.6
2018-Aug-08 02:00N 41°53' E 011°48'816.6
2018-Aug-08 01:30N 41°45' E 011°52'816.7
2018-Aug-08 01:01N 41°38' E 011°57'1016.6
2018-Aug-08 00:25N 41°29' E 012°02'2316.5
2018-Aug-07 23:03N 41°11' E 012°20'116.7
2018-Aug-07 23:00N 41°10' E 012°21'1218.7
2018-Aug-07 22:20N 41°01' E 012°32'1418.7
2018-Aug-07 21:35N 40°51' E 012°45'218.4
2018-Aug-07 21:30N 40°50' E 012°47'918.7
2018-Aug-07 21:00N 40°46' E 012°58'1018.6
2018-Aug-07 20:29N 40°43' E 013°10'918.6
2018-Aug-07 20:00N 40°41' E 013°22'918.4
2018-Aug-07 19:30N 40°40' E 013°34'918.3
2018-Aug-07 19:01N 40°39' E 013°45'918.4
2018-Aug-07 18:30N 40°38' E 013°58'816.8
2018-Aug-07 18:01N 40°42' E 014°08'816.3
2018-Aug-07 17:31N 40°47' E 014°16'3 5.7
2018-Aug-07 17:00N 40°50' E 014°16'0 0.0
2018-Aug-07 16:29N 40°50' E 014°16'0 0.0
2018-Aug-07 15:59N 40°50' E 014°16'0 0.0
2018-Aug-07 15:29N 40°50' E 014°16'0 0.0
2018-Aug-07 15:00N 40°50' E 014°16'0 0.0
2018-Aug-07 14:27N 40°50' E 014°16'0 0.0
2018-Aug-07 14:00N 40°50' E 014°16'0 0.1
2018-Aug-07 13:29N 40°50' E 014°16'0 0.1
2018-Aug-07 12:58N 40°50' E 014°16'0 0.0
2018-Aug-07 12:28N 40°50' E 014°16'0 0.0
2018-Aug-07 11:59N 40°50' E 014°16'0 0.0
2018-Aug-07 11:29N 40°50' E 014°16'0 0.0
2018-Aug-07 10:59N 40°50' E 014°16'0 0.0
2018-Aug-07 10:30N 40°50' E 014°16'0 0.0
2018-Aug-07 10:00N 40°50' E 014°16'0 0.0
2018-Aug-07 09:30N 40°50' E 014°16'0 0.0
2018-Aug-07 08:58N 40°50' E 014°16'0 0.0
2018-Aug-07 08:28N 40°50' E 014°16'0 0.0
2018-Aug-07 08:00N 40°50' E 014°16'0 0.0
2018-Aug-07 07:30N 40°50' E 014°16'0 0.0
2018-Aug-07 07:00N 40°50' E 014°16'0 0.0
2018-Aug-07 06:30N 40°50' E 014°16'0 0.0
2018-Aug-07 06:00N 40°50' E 014°16'0 0.0
2018-Aug-07 05:30N 40°50' E 014°16'0 0.0
2018-Aug-07 05:00N 40°50' E 014°16'0 0.1
2018-Aug-07 04:30N 40°50' E 014°16'1 2.6
2018-Aug-07 04:00N 40°49' E 014°17'5 9.7
2018-Aug-07 03:30N 40°45' E 014°14'612.4
2018-Aug-07 03:00N 40°41' E 014°08'713.5
2018-Aug-07 02:30N 40°37' E 014°01'815.6
2018-Aug-07 02:00N 40°32' E 013°53'815.3
2018-Aug-07 01:30N 40°29' E 013°44'815.9
2018-Aug-07 01:00N 40°29' E 013°33'815.9
2018-Aug-07 00:30N 40°31' E 013°23'815.8
2018-Aug-07 00:01N 40°33' E 013°14'915.7
2018-Aug-06 23:27N 40°36' E 013°03'715.9
2018-Aug-06 23:00N 40°38' E 012°53'815.9
2018-Aug-06 22:30N 40°40' E 012°43'815.8
2018-Aug-06 22:00N 40°42' E 012°33'815.7
2018-Aug-06 21:30N 40°44' E 012°23'815.9
2018-Aug-06 21:01N 40°46' E 012°13'815.9
2018-Aug-06 20:30N 40°49' E 012°03'816.0
2018-Aug-06 20:01N 40°51' E 011°53'815.9
2018-Aug-06 19:31N 40°53' E 011°43'815.7
2018-Aug-06 18:58N 40°55' E 011°32'715.5
2018-Aug-06 18:30N 40°57' E 011°23'815.4
2018-Aug-06 18:00N 40°59' E 011°13'3915.9
2018-Aug-06 15:33N 41°10' E 010°23'1716.9
2018-Aug-06 14:32N 41°13' E 010°01'216.5
2018-Aug-06 14:23N 41°14' E 009°58'916.3
2018-Aug-06 13:50N 41°18' E 009°47'716.4
2018-Aug-06 13:26N 41°20' E 009°39'716.2
2018-Aug-06 13:00N 41°21' E 009°30'6815.7
2018-Aug-06 08:42N 41°17' E 007°60'816.7
2018-Aug-06 08:15N 41°17' E 007°50'2816.7
2018-Aug-06 06:34N 41°17' E 007°13'116.7
2018-Aug-06 06:30N 41°17' E 007°11'10316.9
2018-Aug-06 00:24N 41°15' E 004°54'2617.3
2018-Aug-05 22:54N 41°16' E 004°19'717.3
2018-Aug-05 22:30N 41°16' E 004°10'917.1
2018-Aug-05 22:00N 41°16' E 003°59'816.9
2018-Aug-05 21:30N 41°16' E 003°48'816.9
2018-Aug-05 21:00N 41°16' E 003°36'816.7
2018-Aug-05 20:30N 41°16' E 003°25'816.6
2018-Aug-05 20:00N 41°16' E 003°14'816.4
2018-Aug-05 19:30N 41°16' E 003°03'2716.1
2018-Aug-05 17:51N 41°15' E 002°28'616.3
2018-Aug-05 17:30N 41°15' E 002°20'714.6
2018-Aug-05 17:00N 41°17' E 002°11'5 9.5
2018-Aug-05 16:30N 41°21' E 002°10'1 1.2
2018-Aug-05 16:00N 41°22' E 002°11'0 0.0
2018-Aug-05 15:30N 41°22' E 002°11'0 0.0
2018-Aug-05 14:58N 41°22' E 002°11'0 0.0
2018-Aug-05 13:58N 41°22' E 002°11'0 0.0
2018-Aug-05 13:29N 41°22' E 002°11'0 0.0
2018-Aug-05 12:59N 41°22' E 002°11'0 0.0
2018-Aug-05 12:29N 41°22' E 002°11'0 0.0
2018-Aug-05 12:00N 41°22' E 002°11'0 0.0
2018-Aug-05 11:30N 41°22' E 002°11'0 0.0
2018-Aug-05 11:00N 41°22' E 002°11'0 0.0
2018-Aug-05 10:28N 41°22' E 002°11'0 0.0
2018-Aug-05 09:58N 41°22' E 002°11'0 0.0
2018-Aug-05 09:28N 41°22' E 002°11'0 0.0
2018-Aug-05 09:00N 41°22' E 002°11'0 0.0
2018-Aug-05 08:30N 41°22' E 002°11'0 0.0
2018-Aug-05 08:00N 41°22' E 002°11'0 0.0
2018-Aug-05 07:30N 41°22' E 002°11'0 0.0
2018-Aug-05 06:59N 41°22' E 002°11'0 0.0
2018-Aug-05 06:30N 41°22' E 002°11'0 0.0
2018-Aug-05 06:00N 41°22' E 002°11'0 0.0
2018-Aug-05 05:30N 41°22' E 002°11'0 0.0
2018-Aug-05 05:00N 41°22' E 002°11'0 0.0
2018-Aug-05 04:30N 41°22' E 002°11'0 0.0
2018-Aug-05 04:00N 41°22' E 002°11'0 0.0
2018-Aug-05 03:30N 41°22' E 002°11'0 0.0
2018-Aug-05 03:00N 41°22' E 002°11'1 1.3
2018-Aug-05 02:30N 41°21' E 002°10'4 7.1
2018-Aug-05 02:00N 41°18' E 002°11'815.1
2018-Aug-05 01:30N 41°10' E 002°11'816.7
2018-Aug-05 01:00N 41°02' E 002°12'816.5
2018-Aug-05 00:30N 40°54' E 002°13'816.9
2018-Aug-05 00:00N 40°45' E 002°13'816.9
2018-Aug-04 23:30N 40°37' E 002°13'917.1
2018-Aug-04 23:00N 40°28' E 002°12'817.2
2018-Aug-04 22:30N 40°20' E 002°12'917.1
2018-Aug-04 22:00N 40°11' E 002°12'816.4
2018-Aug-04 21:30N 40°03' E 002°12'816.1
2018-Aug-04 21:00N 39°55' E 002°13'816.3
2018-Aug-04 20:30N 39°47' E 002°13'1915.6
2018-Aug-04 19:17N 39°29' E 002°22'415.9
2018-Aug-04 19:00N 39°26' E 002°27'714.5
2018-Aug-04 18:30N 39°29' E 002°36'5 9.8
2018-Aug-04 18:00N 39°33' E 002°38'0 0.2
2018-Aug-04 17:19N 39°33' E 002°38'0 0.0
2018-Aug-04 16:58N 39°33' E 002°38'0 0.0
2018-Aug-04 16:28N 39°33' E 002°38'0 0.0
2018-Aug-04 15:59N 39°33' E 002°38'0 0.0
2018-Aug-04 15:29N 39°33' E 002°38'0 0.0
2018-Aug-04 14:59N 39°33' E 002°38'0 0.0
2018-Aug-04 14:30N 39°33' E 002°38'0 0.1
2018-Aug-04 14:00N 39°33' E 002°38'0 0.1
2018-Aug-04 13:30N 39°33' E 002°38'  

Dump ship's entire track history